createdAt,value
2023-02-13T00:01:44.289Z,95.18
2023-02-13T00:04:47.236Z,95.55
2023-02-13T00:07:50.106Z,95.52
2023-02-13T00:10:53.245Z,96.13
2023-02-13T00:13:56.216Z,95.92
2023-02-13T00:16:59.141Z,95.35
2023-02-13T00:20:02.148Z,95.78
2023-02-13T00:23:05.001Z,95.83
2023-02-13T00:26:10.910Z,95.59
2023-02-13T00:29:17.417Z,95.65
2023-02-13T00:32:20.742Z,95.44
2023-02-13T00:35:23.637Z,95.54
2023-02-13T00:38:30.578Z,96.15
2023-02-13T00:41:33.452Z,96.94
2023-02-13T00:44:36.300Z,96.41
2023-02-13T00:47:39.275Z,96.10
2023-02-13T00:50:42.237Z,96.30
2023-02-13T00:53:45.780Z,96.45
2023-02-13T00:56:49.604Z,97.34
2023-02-13T00:59:52.472Z,97.09
2023-02-13T01:02:55.705Z,97.66
2023-02-13T01:05:58.586Z,97.53
2023-02-13T01:09:03.488Z,97.73
2023-02-13T01:12:06.574Z,97.33
2023-02-13T01:15:09.898Z,97.66
2023-02-13T01:18:18.112Z,97.84
2023-02-13T01:21:23.948Z,97.24
2023-02-13T01:24:30.239Z,97.56
2023-02-13T01:27:38.269Z,98.07
2023-02-13T01:30:41.109Z,98.14
2023-02-13T01:33:44.025Z,97.97
2023-02-13T01:36:46.914Z,97.38
2023-02-13T01:39:52.005Z,99.44
2023-02-13T01:42:54.923Z,99.50
2023-02-13T01:45:59.396Z,99.11
2023-02-13T01:49:16.455Z,99.04
2023-02-13T01:52:19.561Z,98.76
2023-02-13T01:55:22.864Z,98.74
2023-02-13T01:58:30.716Z,98.85
2023-02-13T02:01:34.368Z,98.57
2023-02-13T02:04:40.497Z,97.78
2023-02-13T02:07:50.242Z,97.22
2023-02-13T02:11:05.639Z,97.23
2023-02-13T02:14:08.718Z,96.79
2023-02-13T02:17:12.402Z,96.62
2023-02-13T02:20:28.164Z,96.87
2023-02-13T02:23:52.845Z,96.93
2023-02-13T02:27:20.684Z,96.97
2023-02-13T02:30:40.098Z,97.36
2023-02-13T02:33:50.097Z,96.96
2023-02-13T02:37:12.746Z,96.93
2023-02-13T02:40:28.071Z,97.15
2023-02-13T02:44:00.832Z,97.25
2023-02-13T02:47:37.121Z,97.67
2023-02-13T02:50:50.611Z,97.96
2023-02-13T02:54:04.026Z,97.97
2023-02-13T02:57:27.394Z,97.59
2023-02-13T03:00:58.507Z,97.72
2023-02-13T03:04:22.286Z,97.73
2023-02-13T03:07:25.707Z,97.69
2023-02-13T03:10:53.056Z,97.18
2023-02-13T03:13:58.657Z,96.57
2023-02-13T03:17:21.895Z,96.57
2023-02-13T03:21:11.164Z,96.22
2023-02-13T03:24:22.619Z,96.69
2023-02-13T03:28:08.976Z,95.98
2023-02-13T03:31:14.598Z,96.39
2023-02-13T03:34:22.697Z,95.70
2023-02-13T03:37:50.097Z,95.73
2023-02-13T03:41:20.583Z,95.11
2023-02-13T03:44:30.885Z,95.65
2023-02-13T03:47:35.185Z,95.86
2023-02-13T03:50:42.007Z,95.97
2023-02-13T03:53:49.609Z,96.45
2023-02-13T03:57:12.907Z,95.94
2023-02-13T04:00:18.501Z,95.87
2023-02-13T04:03:36.198Z,95.92
2023-02-13T04:07:03.106Z,95.81
2023-02-13T04:10:12.956Z,95.76
2023-02-13T04:13:21.741Z,95.91
2023-02-13T04:16:40.146Z,95.88
2023-02-13T04:19:43.265Z,95.58
2023-02-13T04:22:48.228Z,95.65
2023-02-13T04:25:54.230Z,95.59
2023-02-13T04:28:57.446Z,95.54
2023-02-13T04:32:00.397Z,95.34
2023-02-13T04:35:03.330Z,95.29
2023-02-13T04:38:06.269Z,95.20
2023-02-13T04:41:09.228Z,95.08
2023-02-13T04:44:11.994Z,95.03
2023-02-13T04:47:14.809Z,94.93
2023-02-13T04:50:17.879Z,94.97
2023-02-13T04:53:20.866Z,95.19
2023-02-13T04:56:23.755Z,95.08
2023-02-13T04:59:26.650Z,94.96
2023-02-13T05:02:31.623Z,94.88
2023-02-13T05:05:35.347Z,95.31
2023-02-13T05:08:38.184Z,95.32
2023-02-13T05:11:41.216Z,95.78
2023-02-13T05:14:44.001Z,95.71
2023-02-13T05:17:47.357Z,95.88
2023-02-13T05:21:10.104Z,95.87
2023-02-13T05:24:12.914Z,95.88
2023-02-13T05:27:15.722Z,95.75
2023-02-13T05:30:18.825Z,95.74
2023-02-13T05:33:21.739Z,95.38
2023-02-13T05:36:25.078Z,94.84
2023-02-13T05:39:27.997Z,95.55
2023-02-13T05:42:30.787Z,95.82
2023-02-13T05:45:33.766Z,95.86
2023-02-13T05:48:37.196Z,95.98
2023-02-13T05:51:40.223Z,96.42
2023-02-13T05:54:43.128Z,96.31
2023-02-13T05:57:45.935Z,96.34
2023-02-13T06:00:49.022Z,95.87
2023-02-13T06:03:51.939Z,95.69
2023-02-13T06:06:54.760Z,94.51
2023-02-13T06:09:59.743Z,94.23
2023-02-13T06:13:02.674Z,93.47
2023-02-13T06:16:06.025Z,93.14
2023-02-13T06:19:09.760Z,93.47
2023-02-13T06:22:12.653Z,93.15
2023-02-13T06:25:15.585Z,92.97
2023-02-13T06:28:18.453Z,92.87
2023-02-13T06:31:21.447Z,92.81
2023-02-13T06:34:24.523Z,92.47
2023-02-13T06:37:27.389Z,92.47
2023-02-13T06:40:30.675Z,92.69
2023-02-13T06:43:39.182Z,93.80
2023-02-13T06:46:42.938Z,94.00
2023-02-13T06:49:45.764Z,94.71
2023-02-13T06:52:51.203Z,94.66
2023-02-13T06:55:55.701Z,94.43
2023-02-13T06:58:58.904Z,94.33
2023-02-13T07:02:03.244Z,94.10
2023-02-13T07:05:07.072Z,92.81
2023-02-13T07:08:12.168Z,91.08
2023-02-13T07:11:25.680Z,89.46
2023-02-13T07:14:28.578Z,78.20
2023-02-13T07:17:31.474Z,71.50
2023-02-13T07:20:34.776Z,69.71
2023-02-13T07:23:37.649Z,69.09
2023-02-13T07:26:41.761Z,64.15
2023-02-13T07:29:45.028Z,62.33
2023-02-13T07:32:47.956Z,55.53
2023-02-13T07:35:52.666Z,47.79
2023-02-13T07:38:55.583Z,47.12
2023-02-13T07:41:58.483Z,43.90
2023-02-13T07:45:05.819Z,42.75
2023-02-13T07:48:08.947Z,37.57
2023-02-13T07:51:11.883Z,36.00
2023-02-13T07:54:14.826Z,36.36
2023-02-13T07:57:17.630Z,34.12
2023-02-13T08:00:21.972Z,32.68
2023-02-13T08:03:25.065Z,33.97
2023-02-13T08:06:28.154Z,36.05
2023-02-13T08:09:50.693Z,33.72
2023-02-13T08:12:55.030Z,29.80
2023-02-13T08:15:58.445Z,30.05
2023-02-13T08:19:01.663Z,31.79
2023-02-13T08:22:04.649Z,30.83
2023-02-13T08:25:08.811Z,31.08
2023-02-13T08:28:11.717Z,29.84
2023-02-13T08:31:14.891Z,30.37
2023-02-13T08:34:18.037Z,27.72
2023-02-13T08:37:21.128Z,29.63
2023-02-13T08:40:25.901Z,29.73
2023-02-13T08:43:29.010Z,28.30
2023-02-13T08:46:32.067Z,28.04
2023-02-13T08:49:35.685Z,29.26
2023-02-13T08:52:39.076Z,28.99
2023-02-13T08:55:42.407Z,31.43
2023-02-13T08:58:48.110Z,30.15
2023-02-13T09:01:54.740Z,28.29
2023-02-13T09:04:58.578Z,25.94
2023-02-13T09:08:03.182Z,26.46
2023-02-13T09:11:07.550Z,25.75
2023-02-13T09:14:10.540Z,26.68
2023-02-13T09:17:14.886Z,27.57
2023-02-13T09:20:20.004Z,27.44
2023-02-13T09:23:22.850Z,25.17
2023-02-13T09:26:25.662Z,24.16
2023-02-13T09:29:31.858Z,24.05
2023-02-13T09:32:35.297Z,24.88
2023-02-13T09:35:41.803Z,23.46
2023-02-13T09:38:45.133Z,21.24
2023-02-13T09:41:51.428Z,20.44
2023-02-13T09:45:02.555Z,21.63
2023-02-13T09:48:10.734Z,22.89
2023-02-13T09:51:17.652Z,22.58
2023-02-13T09:54:22.828Z,22.56
2023-02-13T09:57:37.235Z,21.31
2023-02-13T10:00:43.342Z,20.97
2023-02-13T10:04:21.273Z,20.46
2023-02-13T10:07:47.444Z,20.81
2023-02-13T10:11:16.824Z,21.17
2023-02-13T10:14:29.335Z,20.20
2023-02-13T10:17:43.257Z,19.67
2023-02-13T10:20:51.993Z,19.86
2023-02-13T10:24:16.443Z,19.58
2023-02-13T10:27:44.816Z,19.21
2023-02-13T10:30:56.807Z,22.20
2023-02-13T10:34:06.137Z,23.71
2023-02-13T10:37:22.521Z,26.62
2023-02-13T10:40:38.932Z,29.46
2023-02-13T10:44:16.385Z,28.20
2023-02-13T10:47:38.140Z,28.89
2023-02-13T10:50:41.232Z,30.41
2023-02-13T10:54:17.926Z,27.47
2023-02-13T10:58:07.159Z,25.71
2023-02-13T11:01:25.961Z,23.70
2023-02-13T11:04:29.893Z,25.09
2023-02-13T11:07:34.987Z,27.76
2023-02-13T11:10:37.760Z,29.23
2023-02-13T11:13:42.569Z,30.96
2023-02-13T11:17:01.974Z,32.19
2023-02-13T11:20:23.292Z,31.08
2023-02-13T11:23:36.966Z,32.30
2023-02-13T11:26:41.861Z,34.26
2023-02-13T11:30:05.402Z,36.96
2023-02-13T11:33:28.466Z,38.97
2023-02-13T11:36:34.031Z,38.67
2023-02-13T11:39:37.111Z,40.70
2023-02-13T11:42:43.203Z,42.79
2023-02-13T11:45:46.165Z,42.86
2023-02-13T11:49:07.279Z,38.79
2023-02-13T11:52:39.768Z,37.10
2023-02-13T11:55:44.065Z,30.94
2023-02-13T11:59:03.266Z,26.94
2023-02-13T12:02:20.835Z,26.68
2023-02-13T12:05:27.422Z,26.54
2023-02-13T12:08:37.777Z,25.75
2023-02-13T12:11:50.033Z,24.22
2023-02-13T12:18:37.710Z,23.86
2023-02-13T12:21:56.607Z,24.97
2023-02-13T12:25:24.743Z,24.14
2023-02-13T12:28:44.931Z,23.86
2023-02-13T12:32:05.104Z,22.81
2023-02-13T12:35:38.827Z,22.46
2023-02-13T12:39:09.816Z,23.17
2023-02-13T12:42:31.816Z,25.65
2023-02-13T12:45:48.078Z,25.13
2023-02-13T12:49:23.203Z,27.85
2023-02-13T12:52:44.542Z,32.55
2023-02-13T12:56:09.975Z,36.52
2023-02-13T12:59:57.383Z,38.67
2023-02-13T13:03:15.335Z,39.33
2023-02-13T13:06:34.281Z,38.49
2023-02-13T13:09:53.895Z,36.92
2023-02-13T13:13:19.681Z,37.73
2023-02-13T13:16:31.608Z,40.85
2023-02-13T13:20:16.143Z,42.13
2023-02-13T13:23:29.863Z,42.54
2023-02-13T13:26:39.152Z,43.16
2023-02-13T13:29:46.284Z,42.45
2023-02-13T13:32:54.820Z,43.32
2023-02-13T13:36:03.728Z,44.78
2023-02-13T13:39:41.697Z,45.90
2023-02-13T13:42:57.276Z,45.57
2023-02-13T13:46:09.089Z,44.06
2023-02-13T13:49:21.084Z,43.67
2023-02-13T13:52:28.283Z,43.49
2023-02-13T13:55:58.532Z,44.01
2023-02-13T13:59:01.490Z,45.42
2023-02-13T14:02:19.595Z,45.91
2023-02-13T14:05:32.596Z,47.56
2023-02-13T14:08:41.632Z,46.73
2023-02-13T14:11:47.275Z,43.62
2023-02-13T14:14:52.594Z,44.06
2023-02-13T14:17:57.518Z,45.86
2023-02-13T14:21:03.570Z,46.75
2023-02-13T14:24:12.498Z,46.81
2023-02-13T14:27:28.834Z,48.13
2023-02-13T14:30:34.877Z,49.39
2023-02-13T14:33:37.872Z,50.10
2023-02-13T14:37:07.156Z,49.73
2023-02-13T14:40:46.250Z,49.41
2023-02-13T14:43:52.016Z,49.62
2023-02-13T14:46:56.691Z,49.85
2023-02-13T14:50:03.842Z,50.83
2023-02-13T14:53:15.965Z,50.23
2023-02-13T14:56:22.842Z,50.98
2023-02-13T14:59:35.440Z,51.59
2023-02-13T15:03:02.936Z,51.90
2023-02-13T15:06:14.281Z,52.21
2023-02-13T15:09:29.748Z,53.10
2023-02-13T15:12:37.924Z,52.90
2023-02-13T15:15:42.302Z,53.36
2023-02-13T15:18:49.845Z,53.72
2023-02-13T15:22:01.949Z,53.78
2023-02-13T15:25:07.731Z,53.84
2023-02-13T15:28:22.068Z,54.08
2023-02-13T15:31:25.502Z,54.44
2023-02-13T15:34:34.867Z,54.89
2023-02-13T15:37:37.931Z,55.00
2023-02-13T15:40:42.130Z,55.72
2023-02-13T15:43:48.728Z,54.97
2023-02-13T15:46:53.764Z,55.22
2023-02-13T15:49:57.017Z,55.49
2023-02-13T15:53:03.243Z,55.05
2023-02-13T15:56:06.479Z,55.13
2023-02-13T15:59:10.631Z,55.27
2023-02-13T16:02:37.279Z,55.78
2023-02-13T16:05:43.443Z,56.83
2023-02-13T16:08:52.914Z,56.97
2023-02-13T16:12:17.160Z,57.23
2023-02-13T16:15:22.740Z,57.34
2023-02-13T16:18:26.237Z,57.93
2023-02-13T16:21:34.753Z,58.55
2023-02-13T16:24:37.858Z,58.55
2023-02-13T16:27:48.260Z,59.07
2023-02-13T16:31:19.084Z,58.49
2023-02-13T16:34:29.269Z,58.97
2023-02-13T16:37:34.112Z,58.95
2023-02-13T16:40:42.243Z,58.89
2023-02-13T16:43:47.352Z,59.10
2023-02-13T16:46:56.965Z,59.03
2023-02-13T16:50:02.264Z,59.83
2023-02-13T16:53:05.220Z,59.53
2023-02-13T16:56:10.183Z,60.07
2023-02-13T16:59:52.158Z,60.83
2023-02-13T17:02:55.280Z,59.69
2023-02-13T17:06:01.881Z,60.38
2023-02-13T17:09:04.753Z,60.16
2023-02-13T17:12:18.320Z,60.44
2023-02-13T17:15:23.855Z,60.41
2023-02-13T17:18:27.725Z,59.69
2023-02-13T17:21:30.857Z,60.42
2023-02-13T17:24:33.729Z,60.25
2023-02-13T17:27:36.809Z,60.48
2023-02-13T17:30:40.745Z,60.41
2023-02-13T17:33:45.688Z,60.91
2023-02-13T17:36:48.816Z,59.88
2023-02-13T17:39:53.008Z,59.88
2023-02-13T17:42:57.505Z,59.70
2023-02-13T17:46:01.493Z,59.64
2023-02-13T17:49:04.740Z,59.84
2023-02-13T17:52:10.930Z,59.52
2023-02-13T17:55:21.256Z,58.93
2023-02-13T17:58:24.341Z,59.42
2023-02-13T18:01:27.418Z,60.23
2023-02-13T18:04:30.597Z,59.69
2023-02-13T18:07:33.486Z,60.07
2023-02-13T18:10:37.309Z,60.40
2023-02-13T18:13:44.735Z,60.80
2023-02-13T18:16:47.515Z,61.03
2023-02-13T18:19:51.043Z,60.40
2023-02-13T18:22:54.419Z,61.04
2023-02-13T18:26:24.082Z,62.04
2023-02-13T18:29:27.301Z,62.32
2023-02-13T18:32:30.438Z,62.18
2023-02-13T18:35:34.899Z,62.42
2023-02-13T18:38:38.273Z,62.30
2023-02-13T18:41:41.904Z,63.07
2023-02-13T18:44:44.950Z,63.32
2023-02-13T18:47:48.042Z,63.75
2023-02-13T18:50:50.954Z,64.14
2023-02-13T18:53:54.442Z,63.97
2023-02-13T18:56:57.671Z,63.96
2023-02-13T19:00:00.729Z,64.90
2023-02-13T19:03:03.970Z,64.83
2023-02-13T19:06:09.306Z,65.17
2023-02-13T19:09:12.585Z,65.63
2023-02-13T19:12:15.675Z,65.42
2023-02-13T19:15:18.661Z,66.30
2023-02-13T19:18:21.754Z,65.67
2023-02-13T19:21:27.932Z,66.09
2023-02-13T19:24:31.424Z,66.24
2023-02-13T19:27:37.354Z,66.73
2023-02-13T19:30:40.599Z,66.74
2023-02-13T19:33:44.909Z,66.36
2023-02-13T19:36:47.763Z,66.99
2023-02-13T19:39:50.657Z,67.10
2023-02-13T19:42:53.943Z,67.01
2023-02-13T19:45:57.057Z,66.35
2023-02-13T19:49:00.530Z,66.63
2023-02-13T19:52:03.891Z,66.08
2023-02-13T19:55:07.352Z,66.38
2023-02-13T19:58:11.142Z,66.16
2023-02-13T20:01:18.090Z,66.34
2023-02-13T20:04:21.655Z,66.64
2023-02-13T20:07:24.819Z,66.80
2023-02-13T20:10:27.954Z,67.68
2023-02-13T20:13:32.123Z,67.46
2023-02-13T20:16:37.085Z,66.68
2023-02-13T20:19:40.161Z,67.24
2023-02-13T20:22:43.444Z,67.16
2023-02-13T20:25:46.538Z,67.21
2023-02-13T20:28:50.142Z,67.51
2023-02-13T20:31:53.474Z,66.56
2023-02-13T20:34:59.759Z,66.98
2023-02-13T20:38:04.710Z,67.65
2023-02-13T20:41:15.541Z,67.58
2023-02-13T20:44:22.746Z,67.46
2023-02-13T20:47:25.798Z,67.38
2023-02-13T20:50:28.832Z,67.42
2023-02-13T20:53:32.982Z,67.22
2023-02-13T20:56:36.955Z,67.07
2023-02-13T20:59:39.934Z,66.90
2023-02-13T21:02:43.008Z,67.24
2023-02-13T21:05:46.035Z,66.55
2023-02-13T21:08:49.678Z,66.50
2023-02-13T21:11:52.701Z,66.91
2023-02-13T21:14:55.762Z,67.05
2023-02-13T21:17:59.121Z,67.67
2023-02-13T21:21:02.577Z,68.06
2023-02-13T21:24:08.675Z,67.12
2023-02-13T21:27:12.103Z,66.83
2023-02-13T21:30:15.470Z,67.22
2023-02-13T21:33:18.473Z,66.67
2023-02-13T21:36:21.485Z,66.90
2023-02-13T21:39:24.449Z,67.25
2023-02-13T21:42:27.471Z,67.44
2023-02-13T21:45:30.383Z,67.13
2023-02-13T21:48:33.497Z,67.17
2023-02-13T21:51:37.003Z,66.72
2023-02-13T21:54:39.895Z,66.58
2023-02-13T21:57:42.606Z,66.59
2023-02-13T22:00:45.502Z,67.01
2023-02-13T22:03:48.703Z,66.84
2023-02-13T22:06:52.621Z,67.03
2023-02-13T22:09:55.471Z,66.74
2023-02-13T22:12:58.281Z,67.15
2023-02-13T22:16:03.173Z,66.75
2023-02-13T22:19:07.527Z,67.06
2023-02-13T22:22:10.283Z,67.66
2023-02-13T22:25:13.069Z,67.28
2023-02-13T22:28:16.004Z,68.26
2023-02-13T22:31:22.895Z,67.88
2023-02-13T22:34:27.049Z,68.32
2023-02-13T22:37:29.967Z,68.18
2023-02-13T22:40:35.042Z,69.16
2023-02-13T22:43:39.074Z,68.92
2023-02-13T22:46:41.860Z,69.25
2023-02-13T22:49:44.659Z,69.39
2023-02-13T22:52:47.772Z,69.41
2023-02-13T22:55:51.044Z,69.54
2023-02-13T22:58:54.328Z,69.01
2023-02-13T23:01:57.154Z,69.56
2023-02-13T23:05:00.063Z,69.39
2023-02-13T23:08:02.970Z,69.67
2023-02-13T23:11:30.631Z,69.20
2023-02-13T23:14:33.814Z,69.51
2023-02-13T23:17:56.101Z,69.50
2023-02-13T23:21:05.260Z,68.96
2023-02-13T23:24:08.069Z,69.35
2023-02-13T23:27:12.985Z,68.80
2023-02-13T23:30:18.164Z,69.15
2023-02-13T23:33:21.078Z,69.04
2023-02-13T23:36:23.892Z,68.71
2023-02-13T23:39:26.744Z,68.69
2023-02-13T23:42:29.841Z,69.02
2023-02-13T23:45:32.675Z,68.97
2023-02-13T23:48:36.029Z,69.00
2023-02-13T23:51:38.880Z,67.97
2023-02-13T23:54:41.899Z,68.02
2023-02-13T23:57:44.825Z,68.15
